createdAt,value
2019-04-04T10:32:45.769Z,58464.00
2019-04-04T10:33:45.775Z,57408.00
2019-04-04T10:34:45.745Z,48032.00
2019-04-04T10:35:45.737Z,47424.00
2019-04-04T10:36:45.732Z,35200.00
2019-04-04T10:37:45.719Z,31360.00
2019-04-04T10:38:45.703Z,32128.00
2019-04-04T10:39:45.693Z,25856.00
2019-04-04T10:40:45.686Z,41568.00
2019-04-04T10:41:45.679Z,51968.00
2019-04-04T10:42:45.662Z,53440.00
2019-04-04T10:43:45.650Z,56128.00
2019-04-04T10:44:45.640Z,50432.00
2019-04-04T10:45:45.631Z,46112.00
2019-04-04T10:46:45.618Z,44992.00
2019-04-04T10:47:45.611Z,39648.00
2019-04-04T10:48:45.600Z,35360.00
2019-04-04T10:49:45.586Z,40832.00
2019-04-04T10:50:45.576Z,46272.00
2019-04-04T10:51:45.568Z,47744.00
2019-04-04T10:52:45.564Z,48000.00
2019-04-04T10:53:45.545Z,45312.00
2019-04-04T10:54:45.537Z,46176.00
2019-04-04T10:55:45.522Z,56032.00
2019-04-04T10:56:45.516Z,55904.00
2019-04-04T10:57:45.502Z,58464.00
2019-04-04T10:58:45.492Z,58176.00
2019-04-04T10:59:45.485Z,57280.00
2019-04-04T11:00:45.470Z,55040.00
2019-04-04T11:01:45.463Z,54688.00
2019-04-04T11:02:45.452Z,54208.00
2019-04-04T11:03:45.447Z,57504.00
2019-04-04T11:04:45.432Z,58656.00
2019-04-04T11:05:45.425Z,56992.00
2019-04-04T11:06:45.415Z,54304.00
2019-04-04T11:07:45.428Z,53472.00
2019-04-04T11:08:45.424Z,48800.00
2019-04-04T11:09:45.509Z,44576.00
2019-04-04T11:10:45.449Z,48160.00
2019-04-04T11:11:45.373Z,48608.00
2019-04-04T11:12:45.375Z,52384.00
2019-04-04T11:13:45.376Z,55456.00
2019-04-04T11:14:45.327Z,57696.00
2019-04-04T11:15:45.314Z,55936.00
2019-04-04T11:16:45.307Z,55392.00
2019-04-04T11:17:45.304Z,55328.00
2019-04-04T11:18:45.285Z,51360.00
2019-04-04T11:19:45.276Z,51072.00
2019-04-04T11:20:45.267Z,48576.00
2019-04-04T11:21:45.255Z,50496.00
2019-04-04T11:22:45.249Z,51200.00
2019-04-04T11:23:45.240Z,51456.00
2019-04-04T11:24:45.268Z,51008.00
2019-04-04T11:25:45.217Z,50944.00
2019-04-04T11:26:45.211Z,50688.00
2019-04-04T11:27:45.194Z,54048.00
2019-04-04T11:28:45.184Z,56384.00
2019-04-04T11:29:45.170Z,52096.00
2019-04-04T11:30:45.160Z,45472.00
2019-04-04T11:31:45.148Z,37824.00
2019-04-04T11:32:45.139Z,41120.00
2019-04-04T11:33:45.357Z,40800.00
2019-04-04T11:34:53.010Z,42688.00
2019-04-04T11:36:09.583Z,41344.00
2019-04-04T11:37:09.579Z,42016.00
2019-04-04T11:38:09.565Z,48704.00
2019-04-04T11:39:09.557Z,44576.00
2019-04-04T11:40:09.538Z,42720.00
2019-04-04T11:41:09.544Z,37408.00
2019-04-04T11:42:09.523Z,43328.00
2019-04-04T11:43:09.508Z,53216.00
2019-04-04T11:44:09.497Z,54720.00
2019-04-04T11:45:09.491Z,51200.00
2019-04-04T11:46:09.477Z,49760.00
2019-04-04T11:47:09.473Z,44192.00
2019-04-04T11:48:09.454Z,49312.00
2019-04-04T11:49:09.449Z,46176.00
2019-04-04T11:50:09.434Z,44704.00
2019-04-04T11:51:09.422Z,43744.00
2019-04-04T11:52:09.410Z,42400.00
2019-04-04T11:53:09.638Z,35008.00
2019-04-04T11:54:09.439Z,37728.00
2019-04-04T11:55:09.413Z,38272.00
2019-04-04T11:56:09.379Z,34080.00
2019-04-04T11:57:09.400Z,32192.00
2019-04-04T11:58:09.346Z,33184.00
2019-04-04T11:59:09.377Z,32576.00
2019-04-04T12:00:09.365Z,26336.00
2019-04-04T12:01:09.321Z,20704.00
2019-04-04T12:02:09.312Z,17404.00
2019-04-04T12:03:09.295Z,22144.00
2019-04-04T12:04:09.284Z,23616.00
2019-04-04T12:05:09.485Z,27744.00
2019-04-04T12:06:09.270Z,16160.00
2019-04-04T12:07:09.258Z,16768.00
2019-04-04T12:08:09.241Z,23872.00
2019-04-04T12:09:09.234Z,34720.00
2019-04-04T12:10:09.224Z,28384.00
2019-04-04T12:11:09.211Z,19680.00
2019-04-04T12:12:09.203Z,19808.00
2019-04-04T12:13:09.187Z,20576.00
2019-04-04T12:14:09.175Z,18324.00
2019-04-04T12:15:09.172Z,18320.00
2019-04-04T12:16:09.154Z,16516.00
2019-04-04T12:17:09.151Z,13864.00
2019-04-04T12:18:09.139Z,12680.00
2019-04-04T12:19:09.123Z,11148.00
2019-04-04T12:20:09.112Z,9680.00
2019-04-04T12:21:09.103Z,13848.00
2019-04-04T12:22:11.652Z,18316.00
2019-04-04T12:23:09.080Z,23712.00
2019-04-04T12:24:09.068Z,27456.00
2019-04-04T12:25:09.057Z,34688.00
2019-04-04T12:26:09.050Z,27040.00
2019-04-04T12:27:09.038Z,23616.00
2019-04-04T12:28:09.024Z,21664.00
2019-04-04T12:29:09.012Z,16776.00
2019-04-04T12:30:09.018Z,20096.00
2019-04-04T12:31:08.993Z,18216.00
2019-04-04T12:32:08.981Z,22912.00
2019-04-04T12:33:08.980Z,22304.00
2019-04-04T12:34:08.963Z,25408.00
2019-04-04T12:35:08.948Z,24064.00
2019-04-04T12:36:08.936Z,27200.00
2019-04-04T12:37:08.927Z,29280.00
2019-04-04T12:38:08.917Z,29888.00
2019-04-04T12:39:08.903Z,31232.00
2019-04-04T12:40:19.881Z,31904.00
2019-04-04T12:41:33.396Z,31232.00
2019-04-04T12:42:33.393Z,31360.00
2019-04-04T12:43:33.375Z,30816.00
2019-04-04T12:44:33.364Z,29920.00
2019-04-04T12:45:33.355Z,28160.00
2019-04-04T12:46:33.340Z,24896.00
2019-04-04T12:47:33.333Z,26016.00
2019-04-04T12:48:33.322Z,25728.00
2019-04-04T12:49:33.323Z,24896.00
2019-04-04T12:50:33.311Z,24864.00
2019-04-04T12:51:33.288Z,22688.00
2019-04-04T12:52:33.284Z,23328.00
2019-04-04T12:53:33.269Z,22656.00
2019-04-04T12:54:33.256Z,22464.00
2019-04-04T12:55:33.246Z,21344.00
2019-04-04T12:56:33.235Z,21344.00
2019-04-04T12:57:33.224Z,21216.00
2019-04-04T12:58:33.223Z,19680.00
2019-04-04T12:59:33.201Z,18460.00
2019-04-04T13:00:33.191Z,18296.00
2019-04-04T13:01:33.185Z,18192.00
2019-04-04T13:02:33.169Z,17408.00
2019-04-04T13:03:33.231Z,12676.00
2019-04-04T13:04:33.149Z,8036.00
2019-04-04T13:05:33.142Z,6984.00
2019-04-04T13:06:33.128Z,6736.00
2019-04-04T13:07:33.116Z,6532.00
2019-04-04T13:08:35.108Z,6412.00
2019-04-04T13:09:33.094Z,6100.00
2019-04-04T13:10:33.692Z,5900.00
2019-04-04T13:11:33.085Z,5840.00
2019-04-04T13:12:33.072Z,5784.00
2019-04-04T13:13:33.061Z,5880.00
2019-04-04T13:14:33.042Z,5832.00
2019-04-04T13:15:33.039Z,5800.00
2019-04-04T13:16:33.023Z,5736.00
2019-04-04T13:17:33.012Z,5640.00
2019-04-04T13:18:33.001Z,5572.00
2019-04-04T13:19:32.988Z,5464.00
2019-04-04T13:20:32.985Z,5376.00
2019-04-04T13:21:32.971Z,5304.00
2019-04-04T13:22:32.958Z,5244.00
2019-04-04T13:23:32.948Z,5188.00
2019-04-04T13:24:32.936Z,5104.00
2019-04-04T13:25:32.928Z,5048.00
2019-04-04T13:26:32.922Z,4976.00
2019-04-04T13:27:32.906Z,4924.00
2019-04-04T13:28:32.896Z,4848.00
2019-04-04T13:29:32.891Z,4788.00
2019-04-04T13:30:32.872Z,4736.00
2019-04-04T13:31:32.861Z,4668.00
2019-04-04T13:32:32.850Z,4600.00
2019-04-04T13:33:32.840Z,4504.00
2019-04-04T13:34:32.864Z,4436.00
2019-04-04T13:35:32.818Z,4372.00
2019-04-04T13:36:32.813Z,4300.00
2019-04-04T13:37:32.795Z,4212.00
2019-04-04T13:38:32.788Z,4168.00
2019-04-04T13:39:32.782Z,4128.00
2019-04-04T13:40:44.434Z,4092.00
2019-04-04T13:41:33.773Z,4088.00
2019-04-04T13:42:32.747Z,4068.00
2019-04-04T13:43:32.733Z,4012.00
2019-04-04T13:44:32.722Z,3972.00
2019-04-04T13:45:32.711Z,3928.00
2019-04-04T13:46:32.698Z,3908.00
2019-04-04T13:47:32.718Z,3900.00
2019-04-04T13:48:32.715Z,3884.00
2019-04-04T13:49:32.671Z,3844.00
2019-04-04T13:50:32.664Z,3820.00
2019-04-04T13:51:32.643Z,3808.00
2019-04-04T13:52:32.633Z,3760.00
2019-04-04T13:53:32.622Z,3744.00
2019-04-04T13:54:32.624Z,3724.00
2019-04-04T13:55:32.606Z,3696.00
2019-04-04T13:56:32.588Z,3688.00
2019-04-04T13:57:32.581Z,3656.00
2019-04-04T13:58:32.567Z,3636.00
2019-04-04T13:59:32.559Z,3596.00
2019-04-04T14:00:32.550Z,3576.00
2019-04-04T14:01:32.541Z,3556.00
2019-04-04T14:02:32.531Z,3568.00
2019-04-04T14:03:32.514Z,3552.00
2019-04-04T14:04:32.503Z,3536.00
2019-04-04T14:05:32.492Z,3520.00
2019-04-04T14:06:32.482Z,3500.00
2019-04-04T14:07:32.478Z,3452.00
2019-04-04T14:08:32.460Z,3424.00
2019-04-04T14:09:32.450Z,3388.00
2019-04-04T14:10:32.441Z,3360.00
2019-04-04T14:11:32.429Z,3360.00
2019-04-04T14:12:32.419Z,3344.00
2019-04-04T14:13:32.416Z,3320.00
2019-04-04T14:14:32.397Z,3288.00
2019-04-04T14:15:32.386Z,3264.00
2019-04-04T14:16:32.374Z,3248.00
2019-04-04T14:17:32.369Z,3220.00
2019-04-04T14:18:39.594Z,3212.00
2019-04-04T14:19:56.816Z,3192.00
2019-04-04T14:21:03.538Z,3152.00
2019-04-04T14:21:57.817Z,3112.00
2019-04-04T14:22:56.788Z,3100.00
2019-04-04T14:23:57.123Z,3084.00
2019-04-04T14:24:56.769Z,3068.00
2019-04-04T14:25:59.622Z,3048.00
2019-04-04T14:26:56.744Z,3028.00
2019-04-04T14:27:58.220Z,3008.00
2019-04-04T14:28:56.721Z,3000.00
2019-04-04T14:29:56.708Z,3012.00
2019-04-04T14:30:56.697Z,3016.00
2019-04-04T14:31:56.690Z,3028.00
2019-04-04T14:32:56.676Z,3032.00
2019-04-04T14:33:56.664Z,3036.00
2019-04-04T14:34:56.652Z,3036.00
2019-04-04T14:35:56.645Z,3036.00
2019-04-04T14:36:56.636Z,3028.00
2019-04-04T14:37:56.628Z,3020.00
2019-04-04T14:38:56.623Z,3012.00
2019-04-04T14:39:56.603Z,2992.00
2019-04-04T14:40:56.589Z,2968.00
2019-04-04T14:41:56.579Z,2952.00
2019-04-04T14:42:56.564Z,2928.00
2019-04-04T14:43:59.967Z,2908.00
2019-04-04T14:44:56.547Z,2872.00
2019-04-04T14:45:56.532Z,2840.00
2019-04-04T14:46:56.522Z,2804.00
2019-04-04T14:47:56.515Z,2744.00
2019-04-04T14:48:56.503Z,2660.00
2019-04-04T14:49:56.489Z,2540.00
2019-04-04T14:50:56.479Z,2396.00
2019-04-04T14:51:56.476Z,2240.00
2019-04-04T14:52:56.489Z,2168.00
2019-04-04T14:53:57.979Z,2148.00
2019-04-04T14:54:56.440Z,2112.00
2019-04-04T14:55:56.433Z,2100.00
2019-04-04T14:56:56.421Z,2108.00
2019-04-04T14:57:56.401Z,2128.00
2019-04-04T14:58:56.389Z,2140.00
2019-04-04T14:59:56.390Z,2156.00
2019-04-04T15:00:56.370Z,2188.00
2019-04-04T15:01:56.360Z,2220.00
2019-04-04T15:02:56.347Z,2248.00
2019-04-04T15:03:56.335Z,2288.00
2019-04-04T15:04:56.326Z,2340.00
2019-04-04T15:05:56.364Z,2388.00
2019-04-04T15:06:56.304Z,2432.00
2019-04-04T15:07:56.301Z,2476.00
2019-04-04T15:08:56.281Z,2516.00
2019-04-04T15:09:56.274Z,2532.00
2019-04-04T15:10:56.257Z,2536.00
2019-04-04T15:11:56.245Z,2568.00
2019-04-04T15:12:56.251Z,2604.00
2019-04-04T15:13:56.249Z,2644.00
2019-04-04T15:14:56.253Z,2692.00
2019-04-04T15:15:56.208Z,2720.00
2019-04-04T15:16:56.198Z,2732.00
2019-04-04T15:17:56.199Z,2728.00
2019-04-04T15:18:56.205Z,2716.00
2019-04-04T15:19:56.214Z,2728.00
2019-04-04T15:20:57.007Z,2744.00
2019-04-04T15:21:56.135Z,2776.00
2019-04-04T15:22:56.124Z,2844.00
2019-04-04T15:23:56.119Z,2924.00
2019-04-04T15:24:56.106Z,3000.00
2019-04-04T15:25:56.090Z,3204.00
2019-04-04T15:26:56.090Z,3400.00
2019-04-04T15:27:56.070Z,3308.00
2019-04-04T15:28:56.058Z,3188.00
2019-04-04T15:29:56.049Z,3116.00
2019-04-04T15:30:56.034Z,3044.00
2019-04-04T15:31:56.019Z,2972.00
2019-04-04T15:32:56.012Z,2944.00
2019-04-04T15:33:56.000Z,2928.00
2019-04-04T15:34:55.984Z,2908.00
2019-04-04T15:35:55.985Z,2860.00
2019-04-04T15:36:55.965Z,2784.00
2019-04-04T15:37:55.951Z,2708.00
2019-04-04T15:38:55.940Z,2636.00
2019-04-04T15:39:55.933Z,2596.00
2019-04-04T15:40:55.923Z,2584.00
2019-04-04T15:41:55.905Z,2552.00
2019-04-04T15:42:55.897Z,2516.00
2019-04-04T15:43:55.884Z,2480.00
2019-04-04T15:44:55.877Z,2424.00
2019-04-04T15:45:55.861Z,2344.00
2019-04-04T15:46:55.850Z,2300.00
2019-04-04T15:47:55.842Z,2288.00
2019-04-04T15:48:55.840Z,2276.00
2019-04-04T15:49:55.821Z,2256.00
2019-04-04T15:50:55.806Z,2224.00
2019-04-04T15:51:55.798Z,2220.00
2019-04-04T15:52:55.784Z,2216.00
2019-04-04T15:53:55.781Z,2252.00
2019-04-04T15:54:55.762Z,2300.00
2019-04-04T15:55:55.751Z,2332.00
2019-04-04T15:56:55.755Z,2352.00
2019-04-04T15:57:55.734Z,2396.00
2019-04-04T15:58:55.723Z,2468.00
2019-04-04T15:59:55.702Z,2576.00
2019-04-04T16:00:55.698Z,2748.00
2019-04-04T16:01:55.680Z,2908.00
2019-04-04T16:02:55.671Z,3044.00
2019-04-04T16:03:55.664Z,3252.00
2019-04-04T16:04:55.649Z,3416.00
2019-04-04T16:05:55.639Z,3348.00
2019-04-04T16:06:55.628Z,3224.00
2019-04-04T16:07:55.614Z,3244.00
2019-04-04T16:08:55.603Z,3368.00
2019-04-04T16:09:55.593Z,3564.00
2019-04-04T16:10:55.582Z,3488.00
2019-04-04T16:11:55.571Z,3336.00
2019-04-04T16:12:55.568Z,3192.00
2019-04-04T16:13:55.548Z,3048.00
2019-04-04T16:14:55.548Z,3068.00
2019-04-04T16:15:55.545Z,3080.00
2019-04-04T16:16:55.515Z,3040.00
2019-04-04T16:17:55.503Z,2876.00
2019-04-04T16:18:55.496Z,2672.00
2019-04-04T16:19:55.490Z,2580.00
2019-04-04T16:20:55.475Z,2476.00
2019-04-04T16:21:55.465Z,2416.00
2019-04-04T16:22:55.452Z,2400.00
2019-04-04T16:23:55.439Z,2556.00
2019-04-04T16:24:55.425Z,2656.00
2019-04-04T16:25:55.416Z,2600.00
2019-04-04T16:26:55.407Z,2484.00
2019-04-04T16:27:55.398Z,2348.00
2019-04-04T16:28:55.383Z,2276.00
2019-04-04T16:29:55.372Z,2224.00
2019-04-04T16:30:55.365Z,2164.00
2019-04-04T16:31:55.351Z,2100.00
2019-04-04T16:32:55.354Z,2008.00
2019-04-04T16:33:55.327Z,1948.00
2019-04-04T16:34:55.320Z,1948.00
2019-04-04T16:35:55.314Z,1860.00
2019-04-04T16:36:55.294Z,1708.00
2019-04-04T16:37:55.292Z,1624.00
2019-04-04T16:38:55.277Z,1592.00
2019-04-04T16:40:07.898Z,1572.00
2019-04-04T16:41:19.731Z,1492.00
2019-04-04T16:42:19.726Z,1416.00
2019-04-04T16:43:19.708Z,1296.00
2019-04-04T16:44:19.696Z,1232.00
2019-04-04T16:45:19.688Z,1208.00
2019-04-04T16:46:19.674Z,1212.00
2019-04-04T16:47:19.665Z,1244.00
2019-04-04T16:48:19.657Z,1252.00
2019-04-04T16:49:19.641Z,1216.00
2019-04-04T16:50:19.630Z,1140.00
2019-04-04T16:51:19.618Z,1080.00
2019-04-04T16:52:19.611Z,1016.00
2019-04-04T16:53:19.598Z,940.00
2019-04-04T16:54:19.596Z,876.00
2019-04-04T16:55:19.582Z,848.00
2019-04-04T16:56:19.565Z,832.00
2019-04-04T16:57:19.554Z,836.00
2019-04-04T16:58:19.547Z,856.00
2019-04-04T16:59:19.532Z,876.00
2019-04-04T17:00:21.054Z,896.00
2019-04-04T17:01:19.511Z,888.00
2019-04-04T17:02:19.498Z,884.00
2019-04-04T17:03:19.487Z,840.00
2019-04-04T17:04:19.482Z,764.00
2019-04-04T17:05:19.472Z,736.00
2019-04-04T17:06:19.461Z,724.00
2019-04-04T17:07:19.444Z,708.00
2019-04-04T17:08:19.432Z,692.00
2019-04-04T17:09:19.421Z,676.00
2019-04-04T17:10:19.417Z,660.00
2019-04-04T17:11:19.405Z,644.00
2019-04-04T17:12:19.391Z,632.00
2019-04-04T17:13:19.383Z,620.00
2019-04-04T17:14:19.391Z,600.00
2019-04-04T17:15:19.353Z,584.00
2019-04-04T17:16:21.302Z,564.00
2019-04-04T17:17:19.332Z,548.00
2019-04-04T17:18:19.322Z,528.00
2019-04-04T17:19:19.311Z,512.00
2019-04-04T17:20:20.711Z,492.00
2019-04-04T17:21:19.293Z,472.00
2019-04-04T17:22:19.276Z,456.00
2019-04-04T17:23:19.269Z,436.00
2019-04-04T17:24:19.258Z,420.00
2019-04-04T17:25:19.244Z,404.00
2019-04-04T17:26:19.238Z,388.00
2019-04-04T17:27:19.222Z,364.00
2019-04-04T17:28:19.355Z,348.00
2019-04-04T17:29:19.204Z,328.00
2019-04-04T17:30:19.727Z,308.00
2019-04-04T17:31:19.248Z,288.00
2019-04-04T17:32:19.240Z,268.00
2019-04-04T17:33:19.683Z,252.00
2019-04-04T17:34:19.196Z,240.00
2019-04-04T17:35:19.144Z,220.00
2019-04-04T17:36:21.284Z,204.00
2019-04-04T17:37:19.109Z,184.00
2019-04-04T17:38:19.364Z,172.00
2019-04-04T17:39:19.085Z,156.00
2019-04-04T17:40:19.305Z,144.00
2019-04-04T17:41:19.071Z,132.00
2019-04-04T17:42:29.206Z,116.00
2019-04-04T17:43:43.907Z,104.00
2019-04-04T17:44:43.508Z,92.00
2019-04-04T17:45:43.897Z,84.00
2019-04-04T17:46:43.688Z,76.00
2019-04-04T17:47:43.480Z,64.00
2019-04-04T17:48:43.794Z,60.00
2019-04-04T17:49:43.450Z,52.00
2019-04-04T17:50:43.875Z,44.00
2019-04-04T17:51:43.435Z,44.00
2019-04-04T17:52:43.682Z,36.00
2019-04-04T17:53:43.464Z,32.00
2019-04-04T17:54:43.393Z,28.00
2019-04-04T17:55:43.857Z,24.00
2019-04-04T17:56:43.371Z,20.00
2019-04-04T17:57:43.361Z,20.00
2019-04-04T17:58:43.351Z,16.00
2019-04-04T17:59:43.337Z,12.00
2019-04-04T18:00:43.335Z,12.00
2019-04-04T18:01:43.317Z,12.00
2019-04-04T18:02:43.304Z,12.00
2019-04-04T18:03:43.295Z,8.00
2019-04-04T18:04:48.645Z,8.00
2019-04-04T18:05:43.271Z,4.00
2019-04-04T18:06:43.266Z,8.00
2019-04-04T18:07:43.246Z,4.00
2019-04-04T18:08:43.238Z,4.00
2019-04-04T18:09:45.454Z,4.00
2019-04-04T18:10:43.221Z,4.00
2019-04-04T18:11:43.204Z,4.00
2019-04-04T18:12:43.197Z,4.00
2019-04-04T18:13:43.200Z,4.00
2019-04-04T18:14:43.173Z,4.00
2019-04-04T18:15:43.157Z,4.00
2019-04-04T18:16:43.144Z,4.00
2019-04-04T18:17:43.136Z,4.00
2019-04-04T18:18:43.121Z,4.00
2019-04-04T18:19:43.132Z,4.00
2019-04-04T18:20:43.107Z,4.00
2019-04-04T18:21:43.088Z,4.00
2019-04-04T18:22:43.084Z,4.00
2019-04-04T18:23:43.066Z,4.00
2019-04-04T18:24:43.060Z,4.00
2019-04-04T18:25:43.045Z,4.00
2019-04-04T18:26:43.037Z,4.00
2019-04-04T18:27:43.019Z,4.00
2019-04-04T18:28:43.014Z,4.00
2019-04-04T18:29:43.004Z,4.00
2019-04-04T18:30:42.987Z,4.00
2019-04-04T18:32:42.967Z,4.00
2019-04-04T18:36:42.920Z,4.00
2019-04-04T18:37:42.911Z,4.00
2019-04-04T18:38:42.899Z,4.00
2019-04-04T18:39:42.946Z,4.00
2019-04-04T18:41:42.867Z,4.00
2019-04-04T18:42:52.671Z,4.00
2019-04-04T18:44:07.320Z,4.00
